sensor_id;sensor_type;location;lat;lon;timestamp;temperature;humidity
51613;DHT22;37694;51.748;14.326;2022-12-07T00:01:47;22.40;47.40
51613;DHT22;37694;51.748;14.326;2022-12-07T00:04:15;22.40;47.50
51613;DHT22;37694;51.748;14.326;2022-12-07T00:06:44;22.40;47.50
51613;DHT22;37694;51.748;14.326;2022-12-07T00:09:14;22.40;47.50
51613;DHT22;37694;51.748;14.326;2022-12-07T00:11:40;22.40;47.60
51613;DHT22;37694;51.748;14.326;2022-12-07T00:14:10;22.40;47.60
51613;DHT22;37694;51.748;14.326;2022-12-07T00:16:36;22.30;47.60
51613;DHT22;37694;51.748;14.326;2022-12-07T00:19:03;22.30;47.50
51613;DHT22;37694;51.748;14.326;2022-12-07T00:21:31;22.30;47.60
51613;DHT22;37694;51.748;14.326;2022-12-07T00:23:57;22.30;48.00
51613;DHT22;37694;51.748;14.326;2022-12-07T00:26:32;22.30;48.50
51613;DHT22;37694;51.748;14.326;2022-12-07T00:29:00;22.30;47.70
51613;DHT22;37694;51.748;14.326;2022-12-07T00:31:28;22.30;47.80
51613;DHT22;37694;51.748;14.326;2022-12-07T00:33:57;22.30;47.80
51613;DHT22;37694;51.748;14.326;2022-12-07T00:36:23;22.20;47.80
51613;DHT22;37694;51.748;14.326;2022-12-07T00:38:49;22.20;47.90
51613;DHT22;37694;51.748;14.326;2022-12-07T00:41:20;22.20;47.80
51613;DHT22;37694;51.748;14.326;2022-12-07T00:43:47;22.20;48.00
51613;DHT22;37694;51.748;14.326;2022-12-07T00:46:13;22.20;47.90
51613;DHT22;37694;51.748;14.326;2022-12-07T00:48:39;22.20;47.80
51613;DHT22;37694;51.748;14.326;2022-12-07T00:51:05;22.20;47.70
51613;DHT22;37694;51.748;14.326;2022-12-07T00:53:34;22.20;47.90
51613;DHT22;37694;51.748;14.326;2022-12-07T00:56:08;22.10;47.90
51613;DHT22;37694;51.748;14.326;2022-12-07T00:58:34;22.10;48.00
51613;DHT22;37694;51.748;14.326;2022-12-07T01:01:02;22.10;48.20
51613;DHT22;37694;51.748;14.326;2022-12-07T01:03:28;22.10;48.20
51613;DHT22;37694;51.748;14.326;2022-12-07T01:05:55;22.00;48.30
51613;DHT22;37694;51.748;14.326;2022-12-07T01:08:22;22.10;48.50
51613;DHT22;37694;51.748;14.326;2022-12-07T01:10:48;22.00;48.30
51613;DHT22;37694;51.748;14.326;2022-12-07T01:13:14;22.10;48.70
51613;DHT22;37694;51.748;14.326;2022-12-07T01:15:42;22.10;48.60
51613;DHT22;37694;51.748;14.326;2022-12-07T01:18:08;22.10;48.50
51613;DHT22;37694;51.748;14.326;2022-12-07T01:20:34;22.00;48.50
51613;DHT22;37694;51.748;14.326;2022-12-07T01:23:00;22.00;48.90
51613;DHT22;37694;51.748;14.326;2022-12-07T01:25:25;22.00;49.20
51613;DHT22;37694;51.748;14.326;2022-12-07T01:27:51;22.00;48.80
51613;DHT22;37694;51.748;14.326;2022-12-07T01:30:17;22.00;48.70
51613;DHT22;37694;51.748;14.326;2022-12-07T01:32:43;22.00;48.70
51613;DHT22;37694;51.748;14.326;2022-12-07T01:35:09;22.00;48.60
51613;DHT22;37694;51.748;14.326;2022-12-07T01:37:38;22.00;48.70
51613;DHT22;37694;51.748;14.326;2022-12-07T01:40:06;22.00;48.60
51613;DHT22;37694;51.748;14.326;2022-12-07T01:42:32;22.00;48.40
51613;DHT22;37694;51.748;14.326;2022-12-07T01:48:00;21.90;48.30
51613;DHT22;37694;51.748;14.326;2022-12-07T01:50:28;21.90;48.50
51613;DHT22;37694;51.748;14.326;2022-12-07T01:52:59;21.90;48.40
51613;DHT22;37694;51.748;14.326;2022-12-07T01:55:27;21.90;48.50
51613;DHT22;37694;51.748;14.326;2022-12-07T01:57:54;21.90;48.40
51613;DHT22;37694;51.748;14.326;2022-12-07T02:00:21;21.90;48.50
51613;DHT22;37694;51.748;14.326;2022-12-07T02:02:57;21.90;48.60
51613;DHT22;37694;51.748;14.326;2022-12-07T02:05:26;21.80;48.30
51613;DHT22;37694;51.748;14.326;2022-12-07T02:07:54;21.80;48.40
51613;DHT22;37694;51.748;14.326;2022-12-07T02:10:28;21.80;48.20
51613;DHT22;37694;51.748;14.326;2022-12-07T02:13:04;21.80;48.20
51613;DHT22;37694;51.748;14.326;2022-12-07T02:27:33;21.80;48.20
51613;DHT22;37694;51.748;14.326;2022-12-07T02:30:02;21.80;48.20
51613;DHT22;37694;51.748;14.326;2022-12-07T02:33:00;21.70;48.10
51613;DHT22;37694;51.748;14.326;2022-12-07T02:35:32;21.80;48.10
51613;DHT22;37694;51.748;14.326;2022-12-07T02:38:17;21.70;48.30
51613;DHT22;37694;51.748;14.326;2022-12-07T02:43:28;21.70;48.20
51613;DHT22;37694;51.748;14.326;2022-12-07T02:45:59;21.70;48.10
51613;DHT22;37694;51.748;14.326;2022-12-07T02:48:27;21.60;48.20
51613;DHT22;37694;51.748;14.326;2022-12-07T02:50:54;21.60;48.10
51613;DHT22;37694;51.748;14.326;2022-12-07T02:53:36;21.70;48.10
51613;DHT22;37694;51.748;14.326;2022-12-07T03:04:24;21.60;48.50
51613;DHT22;37694;51.748;14.326;2022-12-07T03:06:57;21.60;48.40
51613;DHT22;37694;51.748;14.326;2022-12-07T03:09:50;21.50;48.50
51613;DHT22;37694;51.748;14.326;2022-12-07T03:12:32;21.60;48.50
51613;DHT22;37694;51.748;14.326;2022-12-07T03:15:10;21.50;48.60
51613;DHT22;37694;51.748;14.326;2022-12-07T03:17:40;21.50;48.70
51613;DHT22;37694;51.748;14.326;2022-12-07T03:20:13;21.40;48.50
51613;DHT22;37694;51.748;14.326;2022-12-07T03:22:43;21.50;48.40
51613;DHT22;37694;51.748;14.326;2022-12-07T03:25:13;21.50;48.40
51613;DHT22;37694;51.748;14.326;2022-12-07T03:27:57;21.50;49.10
51613;DHT22;37694;51.748;14.326;2022-12-07T03:30:35;21.50;48.20
51613;DHT22;37694;51.748;14.326;2022-12-07T03:33:20;21.50;48.30
51613;DHT22;37694;51.748;14.326;2022-12-07T03:35:52;21.50;48.20
51613;DHT22;37694;51.748;14.326;2022-12-07T03:38:23;21.50;48.30
51613;DHT22;37694;51.748;14.326;2022-12-07T03:41:19;21.50;48.30
51613;DHT22;37694;51.748;14.326;2022-12-07T03:43:47;21.50;48.20
51613;DHT22;37694;51.748;14.326;2022-12-07T03:54:42;21.40;48.40
51613;DHT22;37694;51.748;14.326;2022-12-07T03:57:06;21.40;48.60
51613;DHT22;37694;51.748;14.326;2022-12-07T03:59:33;21.40;48.40
51613;DHT22;37694;51.748;14.326;2022-12-07T04:02:03;21.30;48.40
51613;DHT22;37694;51.748;14.326;2022-12-07T04:04:29;21.40;48.50
51613;DHT22;37694;51.748;14.326;2022-12-07T04:06:55;21.30;48.50
51613;DHT22;37694;51.748;14.326;2022-12-07T04:09:21;21.30;48.40
51613;DHT22;37694;51.748;14.326;2022-12-07T04:11:47;21.40;48.40
51613;DHT22;37694;51.748;14.326;2022-12-07T04:14:13;21.50;48.40
51613;DHT22;37694;51.748;14.326;2022-12-07T04:19:15;21.60;48.10
51613;DHT22;37694;51.748;14.326;2022-12-07T04:21:41;21.80;48.10
51613;DHT22;37694;51.748;14.326;2022-12-07T04:24:07;21.90;48.00
51613;DHT22;37694;51.748;14.326;2022-12-07T04:26:32;21.90;47.90
51613;DHT22;37694;51.748;14.326;2022-12-07T04:28:58;22.00;47.90
51613;DHT22;37694;51.748;14.326;2022-12-07T04:31:24;22.00;47.80
51613;DHT22;37694;51.748;14.326;2022-12-07T04:33:49;22.20;47.80
51613;DHT22;37694;51.748;14.326;2022-12-07T04:36:15;22.20;47.80
51613;DHT22;37694;51.748;14.326;2022-12-07T04:38:41;22.20;47.60
51613;DHT22;37694;51.748;14.326;2022-12-07T04:41:08;22.30;47.50
51613;DHT22;37694;51.748;14.326;2022-12-07T04:43:34;22.40;47.50
51613;DHT22;37694;51.748;14.326;2022-12-07T04:46:00;22.40;47.50
51613;DHT22;37694;51.748;14.326;2022-12-07T04:48:26;22.50;47.30
51613;DHT22;37694;51.748;14.326;2022-12-07T04:50:52;22.50;47.20
51613;DHT22;37694;51.748;14.326;2022-12-07T04:53:18;22.60;47.10
51613;DHT22;37694;51.748;14.326;2022-12-07T04:55:44;22.70;47.10
51613;DHT22;37694;51.748;14.326;2022-12-07T04:58:11;22.70;47.00
51613;DHT22;37694;51.748;14.326;2022-12-07T05:00:37;22.70;46.90
51613;DHT22;37694;51.748;14.326;2022-12-07T05:03:03;22.80;46.90
51613;DHT22;37694;51.748;14.326;2022-12-07T05:05:29;22.90;46.80
51613;DHT22;37694;51.748;14.326;2022-12-07T05:07:54;22.90;46.70
51613;DHT22;37694;51.748;14.326;2022-12-07T05:10:20;23.00;46.60
51613;DHT22;37694;51.748;14.326;2022-12-07T05:12:46;23.00;46.60
51613;DHT22;37694;51.748;14.326;2022-12-07T05:15:13;23.10;46.50
51613;DHT22;37694;51.748;14.326;2022-12-07T05:17:39;23.20;46.40
51613;DHT22;37694;51.748;14.326;2022-12-07T05:20:05;23.20;46.30
51613;DHT22;37694;51.748;14.326;2022-12-07T05:22:31;23.30;46.20
51613;DHT22;37694;51.748;14.326;2022-12-07T05:24:57;23.30;46.10
51613;DHT22;37694;51.748;14.326;2022-12-07T05:27:23;23.40;46.10
51613;DHT22;37694;51.748;14.326;2022-12-07T05:29:50;23.40;46.00
51613;DHT22;37694;51.748;14.326;2022-12-07T05:32:16;23.40;45.90
51613;DHT22;37694;51.748;14.326;2022-12-07T05:34:42;23.40;45.90
51613;DHT22;37694;51.748;14.326;2022-12-07T05:37:07;23.40;45.80
51613;DHT22;37694;51.748;14.326;2022-12-07T05:39:33;23.40;45.80
51613;DHT22;37694;51.748;14.326;2022-12-07T05:41:59;23.40;45.70
51613;DHT22;37694;51.748;14.326;2022-12-07T05:44:44;23.40;45.70
51613;DHT22;37694;51.748;14.326;2022-12-07T05:47:11;23.40;45.70
51613;DHT22;37694;51.748;14.326;2022-12-07T05:49:37;23.40;45.70
51613;DHT22;37694;51.748;14.326;2022-12-07T05:52:03;23.40;45.80
51613;DHT22;37694;51.748;14.326;2022-12-07T05:54:29;23.30;45.70
51613;DHT22;37694;51.748;14.326;2022-12-07T05:56:55;23.30;45.80
51613;DHT22;37694;51.748;14.326;2022-12-07T05:59:21;23.30;45.80
51613;DHT22;37694;51.748;14.326;2022-12-07T06:04:20;23.30;45.50
51613;DHT22;37694;51.748;14.326;2022-12-07T06:06:46;23.20;45.80
51613;DHT22;37694;51.748;14.326;2022-12-07T06:09:12;23.20;45.90
51613;DHT22;37694;51.748;14.326;2022-12-07T06:11:39;23.20;45.70
51613;DHT22;37694;51.748;14.326;2022-12-07T06:14:23;23.20;45.60
51613;DHT22;37694;51.748;14.326;2022-12-07T06:16:49;23.20;46.00
51613;DHT22;37694;51.748;14.326;2022-12-07T06:19:15;23.10;46.00
51613;DHT22;37694;51.748;14.326;2022-12-07T06:21:41;23.10;46.10
51613;DHT22;37694;51.748;14.326;2022-12-07T06:24:07;23.10;46.20
51613;DHT22;37694;51.748;14.326;2022-12-07T06:26:33;23.10;46.40
51613;DHT22;37694;51.748;14.326;2022-12-07T06:28:58;23.10;46.30
51613;DHT22;37694;51.748;14.326;2022-12-07T06:31:24;23.20;46.20
51613;DHT22;37694;51.748;14.326;2022-12-07T06:33:50;23.20;46.40
51613;DHT22;37694;51.748;14.326;2022-12-07T06:36:15;23.30;46.20
51613;DHT22;37694;51.748;14.326;2022-12-07T06:38:41;23.30;46.10
51613;DHT22;37694;51.748;14.326;2022-12-07T06:41:07;23.40;46.50
51613;DHT22;37694;51.748;14.326;2022-12-07T06:43:32;23.40;46.70
51613;DHT22;37694;51.748;14.326;2022-12-07T06:45:58;23.50;46.90
51613;DHT22;37694;51.748;14.326;2022-12-07T06:48:24;23.50;46.60
51613;DHT22;37694;51.748;14.326;2022-12-07T06:50:49;23.50;46.40
51613;DHT22;37694;51.748;14.326;2022-12-07T06:53:15;23.50;46.20
51613;DHT22;37694;51.748;14.326;2022-12-07T06:55:41;23.50;46.40
51613;DHT22;37694;51.748;14.326;2022-12-07T06:58:07;23.50;46.10
51613;DHT22;37694;51.748;14.326;2022-12-07T07:00:32;23.50;46.20
51613;DHT22;37694;51.748;14.326;2022-12-07T07:03:00;23.50;46.20
51613;DHT22;37694;51.748;14.326;2022-12-07T07:05:26;23.50;46.30
51613;DHT22;37694;51.748;14.326;2022-12-07T07:07:51;23.50;46.40
51613;DHT22;37694;51.748;14.326;2022-12-07T07:10:17;23.40;46.30
51613;DHT22;37694;51.748;14.326;2022-12-07T07:12:43;23.40;46.40
51613;DHT22;37694;51.748;14.326;2022-12-07T07:15:09;23.40;46.20
51613;DHT22;37694;51.748;14.326;2022-12-07T07:17:35;23.40;46.30
51613;DHT22;37694;51.748;14.326;2022-12-07T07:20:00;23.40;46.10
51613;DHT22;37694;51.748;14.326;2022-12-07T07:22:26;23.40;46.00
51613;DHT22;37694;51.748;14.326;2022-12-07T07:24:52;23.40;46.00
51613;DHT22;37694;51.748;14.326;2022-12-07T07:27:17;23.40;45.70
51613;DHT22;37694;51.748;14.326;2022-12-07T07:29:43;23.40;45.80
51613;DHT22;37694;51.748;14.326;2022-12-07T07:32:09;23.40;45.90
51613;DHT22;37694;51.748;14.326;2022-12-07T07:34:34;23.30;45.60
51613;DHT22;37694;51.748;14.326;2022-12-07T07:37:00;23.30;46.00
51613;DHT22;37694;51.748;14.326;2022-12-07T07:39:26;23.30;46.20
51613;DHT22;37694;51.748;14.326;2022-12-07T07:41:52;23.30;46.60
51613;DHT22;37694;51.748;14.326;2022-12-07T07:44:17;23.30;46.50
51613;DHT22;37694;51.748;14.326;2022-12-07T07:46:43;23.30;46.40
51613;DHT22;37694;51.748;14.326;2022-12-07T07:49:09;23.20;46.20
51613;DHT22;37694;51.748;14.326;2022-12-07T07:51:35;23.20;46.30
51613;DHT22;37694;51.748;14.326;2022-12-07T07:54:01;23.20;46.20
51613;DHT22;37694;51.748;14.326;2022-12-07T07:56:27;23.20;46.40
51613;DHT22;37694;51.748;14.326;2022-12-07T07:58:53;23.10;46.10
51613;DHT22;37694;51.748;14.326;2022-12-07T08:01:19;23.10;46.20
51613;DHT22;37694;51.748;14.326;2022-12-07T08:03:46;23.10;46.40
51613;DHT22;37694;51.748;14.326;2022-12-07T08:06:12;23.10;46.40
51613;DHT22;37694;51.748;14.326;2022-12-07T08:08:37;23.00;46.30
51613;DHT22;37694;51.748;14.326;2022-12-07T08:11:07;23.00;46.90
51613;DHT22;37694;51.748;14.326;2022-12-07T08:13:33;23.00;46.30
51613;DHT22;37694;51.748;14.326;2022-12-07T08:16:04;23.00;46.60
51613;DHT22;37694;51.748;14.326;2022-12-07T08:18:30;23.00;46.50
51613;DHT22;37694;51.748;14.326;2022-12-07T08:21:00;23.00;46.90
51613;DHT22;37694;51.748;14.326;2022-12-07T08:23:26;23.00;46.90
51613;DHT22;37694;51.748;14.326;2022-12-07T08:25:52;23.00;47.20
51613;DHT22;37694;51.748;14.326;2022-12-07T08:28:18;23.00;46.90
51613;DHT22;37694;51.748;14.326;2022-12-07T08:30:43;23.00;46.70
51613;DHT22;37694;51.748;14.326;2022-12-07T08:33:10;23.00;47.10
51613;DHT22;37694;51.748;14.326;2022-12-07T08:35:35;23.00;47.10
51613;DHT22;37694;51.748;14.326;2022-12-07T08:38:02;23.00;47.20
51613;DHT22;37694;51.748;14.326;2022-12-07T08:40:28;23.00;47.00
51613;DHT22;37694;51.748;14.326;2022-12-07T08:42:54;23.00;46.90
51613;DHT22;37694;51.748;14.326;2022-12-07T08:45:21;23.00;46.80
51613;DHT22;37694;51.748;14.326;2022-12-07T08:48:22;22.90;47.00
51613;DHT22;37694;51.748;14.326;2022-12-07T08:50:50;22.90;46.90
51613;DHT22;37694;51.748;14.326;2022-12-07T08:53:16;22.90;46.90
51613;DHT22;37694;51.748;14.326;2022-12-07T08:55:46;22.90;46.80
51613;DHT22;37694;51.748;14.326;2022-12-07T08:58:12;22.90;46.80
51613;DHT22;37694;51.748;14.326;2022-12-07T09:00:38;22.90;46.90
51613;DHT22;37694;51.748;14.326;2022-12-07T09:03:04;22.90;46.80
51613;DHT22;37694;51.748;14.326;2022-12-07T09:05:29;22.90;47.00
51613;DHT22;37694;51.748;14.326;2022-12-07T09:07:57;22.80;46.80
51613;DHT22;37694;51.748;14.326;2022-12-07T09:10:24;22.80;46.70
51613;DHT22;37694;51.748;14.326;2022-12-07T09:12:51;22.80;46.60
51613;DHT22;37694;51.748;14.326;2022-12-07T09:15:17;22.80;46.70
51613;DHT22;37694;51.748;14.326;2022-12-07T09:17:42;22.80;47.40
51613;DHT22;37694;51.748;14.326;2022-12-07T09:20:08;22.80;46.40
51613;DHT22;37694;51.748;14.326;2022-12-07T09:22:34;22.80;46.30
51613;DHT22;37694;51.748;14.326;2022-12-07T09:25:01;22.80;46.20
51613;DHT22;37694;51.748;14.326;2022-12-07T09:27:27;22.70;46.30
51613;DHT22;37694;51.748;14.326;2022-12-07T09:29:53;22.80;46.20
51613;DHT22;37694;51.748;14.326;2022-12-07T09:32:19;22.70;46.30
51613;DHT22;37694;51.748;14.326;2022-12-07T09:34:44;22.70;46.20
51613;DHT22;37694;51.748;14.326;2022-12-07T09:37:10;22.70;46.20
51613;DHT22;37694;51.748;14.326;2022-12-07T09:39:39;22.70;46.00
51613;DHT22;37694;51.748;14.326;2022-12-07T09:42:06;22.70;45.90
51613;DHT22;37694;51.748;14.326;2022-12-07T09:44:33;22.70;45.90
51613;DHT22;37694;51.748;14.326;2022-12-07T09:47:00;22.70;46.10
51613;DHT22;37694;51.748;14.326;2022-12-07T09:49:29;22.70;46.00
51613;DHT22;37694;51.748;14.326;2022-12-07T09:54:36;22.70;45.80
51613;DHT22;37694;51.748;14.326;2022-12-07T09:57:05;22.60;45.90
51613;DHT22;37694;51.748;14.326;2022-12-07T09:59:31;22.60;46.00
51613;DHT22;37694;51.748;14.326;2022-12-07T10:02:38;22.60;45.80
51613;DHT22;37694;51.748;14.326;2022-12-07T10:05:09;22.60;45.80
51613;DHT22;37694;51.748;14.326;2022-12-07T10:07:36;22.60;45.90
51613;DHT22;37694;51.748;14.326;2022-12-07T10:10:04;22.60;45.80
51613;DHT22;37694;51.748;14.326;2022-12-07T10:12:53;22.60;45.70
51613;DHT22;37694;51.748;14.326;2022-12-07T10:15:18;22.60;45.60
51613;DHT22;37694;51.748;14.326;2022-12-07T10:17:49;22.50;45.70
51613;DHT22;37694;51.748;14.326;2022-12-07T10:20:16;22.50;45.60
51613;DHT22;37694;51.748;14.326;2022-12-07T10:23:08;22.50;45.60
51613;DHT22;37694;51.748;14.326;2022-12-07T10:25:39;22.60;45.50
51613;DHT22;37694;51.748;14.326;2022-12-07T10:30:59;22.50;45.80
51613;DHT22;37694;51.748;14.326;2022-12-07T10:33:36;22.50;45.60
51613;DHT22;37694;51.748;14.326;2022-12-07T10:36:20;22.50;45.70
51613;DHT22;37694;51.748;14.326;2022-12-07T10:38:52;22.50;45.50
51613;DHT22;37694;51.748;14.326;2022-12-07T10:41:19;22.50;45.80
51613;DHT22;37694;51.748;14.326;2022-12-07T10:43:51;22.50;45.60
51613;DHT22;37694;51.748;14.326;2022-12-07T11:00:19;22.50;45.80
51613;DHT22;37694;51.748;14.326;2022-12-07T11:08:24;22.50;45.70
51613;DHT22;37694;51.748;14.326;2022-12-07T11:16:08;22.80;45.40
51613;DHT22;37694;51.748;14.326;2022-12-07T11:24:18;23.00;45.20
51613;DHT22;37694;51.748;14.326;2022-12-07T11:37:28;23.40;44.90
51613;DHT22;37694;51.748;14.326;2022-12-07T11:40:02;23.50;44.90
51613;DHT22;37694;51.748;14.326;2022-12-07T11:45:26;23.60;44.60
51613;DHT22;37694;51.748;14.326;2022-12-07T11:48:02;23.60;44.60
51613;DHT22;37694;51.748;14.326;2022-12-07T11:50:47;23.60;44.40
51613;DHT22;37694;51.748;14.326;2022-12-07T11:56:05;23.70;44.50
51613;DHT22;37694;51.748;14.326;2022-12-07T12:03:40;23.70;44.60
51613;DHT22;37694;51.748;14.326;2022-12-07T12:06:07;23.70;44.70
51613;DHT22;37694;51.748;14.326;2022-12-07T12:08:38;23.70;45.00
51613;DHT22;37694;51.748;14.326;2022-12-07T12:11:25;23.60;45.00
51613;DHT22;37694;51.748;14.326;2022-12-07T12:22:37;23.60;45.40
51613;DHT22;37694;51.748;14.326;2022-12-07T12:25:06;23.60;45.10
51613;DHT22;37694;51.748;14.326;2022-12-07T12:27:35;23.60;45.10
51613;DHT22;37694;51.748;14.326;2022-12-07T12:30:06;23.60;45.20
51613;DHT22;37694;51.748;14.326;2022-12-07T12:32:44;23.60;45.30
51613;DHT22;37694;51.748;14.326;2022-12-07T12:35:29;23.60;45.00
51613;DHT22;37694;51.748;14.326;2022-12-07T12:38:29;23.60;45.00
51613;DHT22;37694;51.748;14.326;2022-12-07T12:40:56;23.50;45.10
51613;DHT22;37694;51.748;14.326;2022-12-07T12:43:49;23.50;45.00
51613;DHT22;37694;51.748;14.326;2022-12-07T12:51:45;23.40;44.60
51613;DHT22;37694;51.748;14.326;2022-12-07T12:59:36;23.40;44.40
51613;DHT22;37694;51.748;14.326;2022-12-07T13:13:29;23.20;44.10
51613;DHT22;37694;51.748;14.326;2022-12-07T13:18:41;23.20;44.10
51613;DHT22;37694;51.748;14.326;2022-12-07T13:23:55;23.10;44.20
51613;DHT22;37694;51.748;14.326;2022-12-07T13:26:36;23.10;44.00
51613;DHT22;37694;51.748;14.326;2022-12-07T13:29:21;23.10;44.10
51613;DHT22;37694;51.748;14.326;2022-12-07T13:31:51;23.10;44.20
51613;DHT22;37694;51.748;14.326;2022-12-07T13:34:37;23.00;44.20
51613;DHT22;37694;51.748;14.326;2022-12-07T13:39:47;23.00;44.10
51613;DHT22;37694;51.748;14.326;2022-12-07T13:42:22;23.00;44.10
51613;DHT22;37694;51.748;14.326;2022-12-07T13:44:49;23.00;44.00
51613;DHT22;37694;51.748;14.326;2022-12-07T13:49:56;22.90;44.10
51613;DHT22;37694;51.748;14.326;2022-12-07T13:52:23;22.90;44.00
51613;DHT22;37694;51.748;14.326;2022-12-07T13:54:59;22.90;44.30
51613;DHT22;37694;51.748;14.326;2022-12-07T13:57:27;23.00;44.30
51613;DHT22;37694;51.748;14.326;2022-12-07T13:59:53;23.00;44.20
51613;DHT22;37694;51.748;14.326;2022-12-07T14:02:32;23.10;44.10
51613;DHT22;37694;51.748;14.326;2022-12-07T14:05:15;23.20;44.00
51613;DHT22;37694;51.748;14.326;2022-12-07T14:12:54;23.40;43.50
51613;DHT22;37694;51.748;14.326;2022-12-07T14:15:22;23.50;43.50
51613;DHT22;37694;51.748;14.326;2022-12-07T14:17:53;23.60;43.40
51613;DHT22;37694;51.748;14.326;2022-12-07T14:22:56;23.70;43.20
51613;DHT22;37694;51.748;14.326;2022-12-07T14:25:26;23.70;43.30
51613;DHT22;37694;51.748;14.326;2022-12-07T14:27:58;23.70;43.30
51613;DHT22;37694;51.748;14.326;2022-12-07T14:30:29;23.70;43.10
51613;DHT22;37694;51.748;14.326;2022-12-07T14:33:02;23.70;43.10
51613;DHT22;37694;51.748;14.326;2022-12-07T14:35:29;23.70;43.00
51613;DHT22;37694;51.748;14.326;2022-12-07T14:37:55;23.70;43.10
51613;DHT22;37694;51.748;14.326;2022-12-07T14:40:26;23.70;43.20
51613;DHT22;37694;51.748;14.326;2022-12-07T14:43:04;23.70;43.30
51613;DHT22;37694;51.748;14.326;2022-12-07T14:45:32;23.70;43.40
51613;DHT22;37694;51.748;14.326;2022-12-07T14:47:58;23.70;43.40
51613;DHT22;37694;51.748;14.326;2022-12-07T14:50:23;23.70;43.40
51613;DHT22;37694;51.748;14.326;2022-12-07T14:52:55;23.70;43.50
51613;DHT22;37694;51.748;14.326;2022-12-07T14:55:27;23.70;43.40
51613;DHT22;37694;51.748;14.326;2022-12-07T14:57:53;23.60;43.50
51613;DHT22;37694;51.748;14.326;2022-12-07T15:00:21;23.60;43.80
51613;DHT22;37694;51.748;14.326;2022-12-07T15:02:47;23.60;44.00
51613;DHT22;37694;51.748;14.326;2022-12-07T15:05:14;23.60;43.80
51613;DHT22;37694;51.748;14.326;2022-12-07T15:07:40;23.60;44.20
51613;DHT22;37694;51.748;14.326;2022-12-07T15:10:14;23.60;44.10
51613;DHT22;37694;51.748;14.326;2022-12-07T15:12:40;23.60;44.10
51613;DHT22;37694;51.748;14.326;2022-12-07T15:15:06;23.50;44.30
51613;DHT22;37694;51.748;14.326;2022-12-07T15:17:32;23.50;44.30
51613;DHT22;37694;51.748;14.326;2022-12-07T15:19:58;23.50;44.50
51613;DHT22;37694;51.748;14.326;2022-12-07T15:22:23;23.50;44.80
51613;DHT22;37694;51.748;14.326;2022-12-07T15:24:49;23.50;44.90
51613;DHT22;37694;51.748;14.326;2022-12-07T15:27:15;23.40;44.70
51613;DHT22;37694;51.748;14.326;2022-12-07T15:29:40;23.40;44.70
51613;DHT22;37694;51.748;14.326;2022-12-07T15:32:06;23.40;44.30
51613;DHT22;37694;51.748;14.326;2022-12-07T15:34:32;23.40;44.00
51613;DHT22;37694;51.748;14.326;2022-12-07T15:36:57;23.40;44.20
51613;DHT22;37694;51.748;14.326;2022-12-07T15:39:23;23.30;44.00
51613;DHT22;37694;51.748;14.326;2022-12-07T15:41:49;23.30;44.10
51613;DHT22;37694;51.748;14.326;2022-12-07T15:44:15;23.30;44.60
51613;DHT22;37694;51.748;14.326;2022-12-07T15:46:59;23.30;44.50
51613;DHT22;37694;51.748;14.326;2022-12-07T15:49:26;23.30;44.60
51613;DHT22;37694;51.748;14.326;2022-12-07T15:51:52;23.30;44.60
51613;DHT22;37694;51.748;14.326;2022-12-07T15:54:26;23.30;44.60
51613;DHT22;37694;51.748;14.326;2022-12-07T15:56:52;23.30;44.60
51613;DHT22;37694;51.748;14.326;2022-12-07T15:59:18;23.30;44.80
51613;DHT22;37694;51.748;14.326;2022-12-07T16:01:45;23.30;44.70
51613;DHT22;37694;51.748;14.326;2022-12-07T16:04:11;23.30;44.70
51613;DHT22;37694;51.748;14.326;2022-12-07T16:06:37;23.30;44.60
51613;DHT22;37694;51.748;14.326;2022-12-07T16:09:03;23.30;44.60
51613;DHT22;37694;51.748;14.326;2022-12-07T16:11:30;23.30;44.60
51613;DHT22;37694;51.748;14.326;2022-12-07T16:13:55;23.30;44.60
51613;DHT22;37694;51.748;14.326;2022-12-07T16:16:21;23.30;44.60
51613;DHT22;37694;51.748;14.326;2022-12-07T16:18:48;23.20;44.40
51613;DHT22;37694;51.748;14.326;2022-12-07T16:21:16;23.20;44.30
51613;DHT22;37694;51.748;14.326;2022-12-07T16:23:42;23.20;44.40
51613;DHT22;37694;51.748;14.326;2022-12-07T16:26:11;23.20;44.40
51613;DHT22;37694;51.748;14.326;2022-12-07T16:28:37;23.20;44.30
51613;DHT22;37694;51.748;14.326;2022-12-07T16:31:05;23.20;44.40
51613;DHT22;37694;51.748;14.326;2022-12-07T16:33:34;23.20;44.50
51613;DHT22;37694;51.748;14.326;2022-12-07T16:36:00;23.20;44.50
51613;DHT22;37694;51.748;14.326;2022-12-07T16:38:26;23.20;44.40
51613;DHT22;37694;51.748;14.326;2022-12-07T16:40:53;23.00;44.40
51613;DHT22;37694;51.748;14.326;2022-12-07T16:43:19;23.10;44.40
51613;DHT22;37694;51.748;14.326;2022-12-07T16:45:46;23.10;44.50
51613;DHT22;37694;51.748;14.326;2022-12-07T16:48:13;23.10;44.10
51613;DHT22;37694;51.748;14.326;2022-12-07T16:50:40;23.10;44.10
51613;DHT22;37694;51.748;14.326;2022-12-07T16:53:07;23.10;44.00
51613;DHT22;37694;51.748;14.326;2022-12-07T16:55:36;23.00;44.20
51613;DHT22;37694;51.748;14.326;2022-12-07T16:58:02;23.00;44.20
51613;DHT22;37694;51.748;14.326;2022-12-07T17:00:27;23.00;45.00
51613;DHT22;37694;51.748;14.326;2022-12-07T17:02:53;23.00;44.10
51613;DHT22;37694;51.748;14.326;2022-12-07T17:05:20;23.00;44.30
51613;DHT22;37694;51.748;14.326;2022-12-07T17:07:46;23.00;44.00
51613;DHT22;37694;51.748;14.326;2022-12-07T17:10:12;23.00;44.10
51613;DHT22;37694;51.748;14.326;2022-12-07T17:12:37;23.00;44.10
51613;DHT22;37694;51.748;14.326;2022-12-07T17:15:03;23.10;44.10
51613;DHT22;37694;51.748;14.326;2022-12-07T17:17:51;23.20;44.20
51613;DHT22;37694;51.748;14.326;2022-12-07T17:20:18;23.20;44.10
51613;DHT22;37694;51.748;14.326;2022-12-07T17:22:44;23.30;43.90
51613;DHT22;37694;51.748;14.326;2022-12-07T17:25:10;23.40;43.70
51613;DHT22;37694;51.748;14.326;2022-12-07T17:27:36;23.50;43.70
51613;DHT22;37694;51.748;14.326;2022-12-07T17:30:05;23.60;43.70
51613;DHT22;37694;51.748;14.326;2022-12-07T17:32:31;23.60;43.60
51613;DHT22;37694;51.748;14.326;2022-12-07T17:34:57;23.70;43.70
51613;DHT22;37694;51.748;14.326;2022-12-07T17:37:23;23.70;43.50
51613;DHT22;37694;51.748;14.326;2022-12-07T17:39:49;23.70;43.40
51613;DHT22;37694;51.748;14.326;2022-12-07T17:42:14;23.70;43.50
51613;DHT22;37694;51.748;14.326;2022-12-07T17:44:58;23.80;43.50
51613;DHT22;37694;51.748;14.326;2022-12-07T17:47:24;23.80;43.50
51613;DHT22;37694;51.748;14.326;2022-12-07T17:49:50;23.80;43.60
51613;DHT22;37694;51.748;14.326;2022-12-07T17:52:15;23.80;43.50